Pagrindinis puslapis
METAR-TAF:

METAR-TAF

Oro uostai :

Kufra, Libija

platuma: 24-13N, ilguma: 023-18E, Aukštis: 417 m

METAR: trūkstamas

Laikas: 17:28 (15:28 UTC)

Prognozė

Ataskaita buvo paskelbta 16 valandos ir 28 minutes, ne 23:00 UTC
Prognozė galioja nuo 23 metu 00 UTC su 23 metu 24 UTC
Vėjas 2 kt nuo kintamojo kryptimis
Matomumas: 8000 m
Tapsmas
nuo 23 metu 10 UTC su 23 metu 12 UTC
Vėjas 10 kt iš Šiaurės/Šiaurės Rytų

TAF: HLKF 222300Z 2300/2324 VRB02KT 8000 NSC BECMG 2310/2312 03010KT

Orai ataskaitas ir orų prognozės (METAR, TAF).

turimą stotys yra geltonos ir raudonos taškus žemėlapyje.

Perkelti pele per norėdami pamatyti stoties vardą.

Tada spustelėkite, norėdami matyti oro stebėjimo ir prognozės.

Norėdami pakeisti žemėlapį: spustelėkite ant žalios mygtukų su juodo kryžiaus žemyn,; žalią mygtuką su brūkšneliu, jei norite nutolinti; arba žalių rodyklių gretimoms žemėlapius.


METAR-TAF: